Time;durP1;ratioP1;P1;durP2;ratioP2;P2;SDS_P1;SDS_P2;PMS_P1;PMS_P2;Temp;Humidity;BMP_temperature;BMP_pressure;BME280_temperature;BME280_humidity;BME280_pressure;Samples;Min_cycle;Max_cycle;Signal;HPM_P1;HPM_P2
2022/08/24 00:01:26;;;;;;;6.38;3.25;;;;;;;15.97;95.62;96467.84;5059237;28;20242;-69
2022/08/24 00:03:54;;;;;;;5.47;3.25;;;;;;;15.94;95.42;96473.53;5058725;28;20220;-68
2022/08/24 00:06:22;;;;;;;4.95;3.33;;;;;;;15.82;96.66;96468.22;5058870;28;20196;-69
2022/08/24 00:08:51;;;;;;;8.63;3.17;;;;;;;15.80;96.88;96471.09;5059053;28;20197;-69
2022/08/24 00:11:18;;;;;;;4.55;3.33;;;;;;;15.78;95.88;96473.13;5058710;28;20200;-70
2022/08/24 00:13:47;;;;;;;5.05;3.50;;;;;;;15.81;96.05;96472.75;5058371;28;20220;-70
2022/08/24 00:16:15;;;;;;;4.80;3.10;;;;;;;15.64;96.85;96471.47;5059158;28;20220;-69
2022/08/24 00:18:42;;;;;;;6.35;3.20;;;;;;;15.86;94.81;96465.78;5059019;28;20974;-69
2022/08/24 00:21:08;;;;;;;4.72;2.95;;;;;;;15.82;94.52;96458.41;5058867;28;21015;-72
2022/08/24 00:23:35;;;;;;;3.85;2.95;;;;;;;15.77;95.32;96468.00;5058223;28;20248;-69
2022/08/24 00:26:03;;;;;;;4.43;3.45;;;;;;;15.59;96.51;96460.66;5058449;28;20208;-69
2022/08/24 00:28:29;;;;;;;4.10;3.28;;;;;;;15.46;97.31;96473.09;5058468;28;20213;-69
2022/08/24 00:30:57;;;;;;;9.15;3.67;;;;;;;15.61;96.83;96465.75;5058631;28;20215;-69
2022/08/24 00:33:24;;;;;;;5.28;3.38;;;;;;;15.39;98.63;96466.94;5057850;28;20217;-70
2022/08/24 00:35:50;;;;;;;5.65;3.38;;;;;;;15.38;98.87;96470.63;5058888;28;20205;-69
2022/08/24 00:38:17;;;;;;;5.05;3.70;;;;;;;15.50;98.25;96472.50;5058166;28;20204;-69
2022/08/24 00:40:47;;;;;;;11.10;3.80;;;;;;;15.64;97.78;96470.66;5058696;28;20696;-69
2022/08/24 00:43:17;;;;;;;4.30;3.22;;;;;;;15.65;97.45;96469.66;5057800;28;20239;-69
2022/08/24 00:45:47;;;;;;;4.93;3.15;;;;;;;15.81;96.14;96463.94;5057998;28;20201;-66
2022/08/24 00:48:20;;;;;;;13.80;3.33;;;;;;;15.76;95.70;96464.56;5058120;28;20209;-68
2022/08/24 00:50:50;;;;;;;4.35;3.38;;;;;;;15.68;95.76;96461.25;5058481;28;20208;-67
2022/08/24 00:53:23;;;;;;;5.10;3.60;;;;;;;15.77;95.08;96460.88;5056727;28;20220;-69
2022/08/24 00:55:54;;;;;;;8.50;3.65;;;;;;;15.62;95.59;96462.09;5058497;28;20227;-70
2022/08/24 00:58:27;;;;;;;8.20;3.72;;;;;;;15.58;96.50;96456.34;5057981;28;20197;-69
2022/08/24 01:00:57;;;;;;;5.43;3.70;;;;;;;15.48;96.63;96458.59;5057228;28;20207;-69
2022/08/24 01:03:26;;;;;;;7.53;3.90;;;;;;;15.36;99.40;96457.53;5056808;28;20227;-70
2022/08/24 01:05:55;;;;;;;6.47;3.70;;;;;;;15.44;97.17;96454.69;5057790;28;20208;-70
2022/08/24 01:08:22;;;;;;;5.70;3.78;;;;;;;15.34;96.10;96451.59;5057500;28;20295;-69
2022/08/24 01:10:52;;;;;;;4.90;3.67;;;;;;;15.33;96.09;96457.13;5057972;28;20205;-69
2022/08/24 01:13:19;;;;;;;4.60;3.17;;;;;;;15.09;97.44;96460.28;5056972;28;20262;-69
2022/08/24 01:15:49;;;;;;;8.52;3.33;;;;;;;15.27;96.25;96455.25;5057757;28;20231;-70
2022/08/24 01:21:10;;;;;;;7.20;3.53;;;;;;;15.33;97.49;96451.81;5057721;28;20766;-70
2022/08/24 01:23:40;;;;;;;7.07;4.00;;;;;;;15.39;96.84;96458.97;5056593;28;20228;-71
2022/08/24 01:26:09;;;;;;;6.72;3.60;;;;;;;15.32;95.71;96458.13;5057592;28;20209;-69
2022/08/24 01:28:38;;;;;;;6.72;3.97;;;;;;;15.29;94.73;96461.19;5057170;28;20695;-70
2022/08/24 01:31:06;;;;;;;4.25;3.25;;;;;;;15.02;95.71;96469.22;5057622;28;20315;-69
2022/08/24 01:33:33;;;;;;;6.45;3.25;;;;;;;15.03;96.09;96469.06;5056767;28;20228;-69
2022/08/24 01:36:03;;;;;;;7.90;3.80;;;;;;;15.03;97.42;96470.88;5057429;28;20207;-69
2022/08/24 01:38:29;;;;;;;7.15;4.07;;;;;;;14.99;98.58;96475.75;5057550;28;20208;-69
2022/08/24 01:41:01;;;;;;;4.75;3.75;;;;;;;15.16;97.04;96468.25;5056867;28;20211;-68
2022/08/24 01:43:28;;;;;;;6.82;3.97;;;;;;;15.08;96.41;96469.25;5056018;28;20896;-69
2022/08/24 01:45:55;;;;;;;8.15;4.00;;;;;;;15.12;95.82;96467.84;5056978;28;20672;-71
2022/08/24 01:48:21;;;;;;;4.68;3.80;;;;;;;15.09;96.14;96456.81;5057229;28;20196;-71
2022/08/24 01:50:48;;;;;;;4.88;3.67;;;;;;;15.00;96.93;96472.09;5057378;28;20201;-71
2022/08/24 01:53:14;;;;;;;5.85;4.28;;;;;;;14.84;99.33;96471.59;5056126;28;20231;-71
2022/08/24 01:55:43;;;;;;;6.43;4.43;;;;;;;14.91;99.96;96477.78;5056941;28;20205;-71
2022/08/24 01:58:12;;;;;;;5.35;4.07;;;;;;;15.05;98.46;96474.97;5057204;28;20281;-71
2022/08/24 02:00:38;;;;;;;4.53;3.70;;;;;;;14.77;97.02;96466.25;5057489;28;20204;-71
2022/08/24 02:03:05;;;;;;;4.60;3.53;;;;;;;14.80;96.42;96467.72;5055876;28;20247;-71
2022/08/24 02:05:33;;;;;;;5.40;4.05;;;;;;;14.74;98.31;96466.66;5057020;28;20209;-69
2022/08/24 02:07:59;;;;;;;6.15;3.80;;;;;;;14.73;99.44;96465.03;5056618;28;21004;-69
2022/08/24 02:10:28;;;;;;;5.60;3.80;;;;;;;14.83;98.22;96464.69;5056757;28;20200;-69
2022/08/24 02:12:58;;;;;;;4.70;3.67;;;;;;;14.91;95.91;96467.16;5055471;28;20252;-71
2022/08/24 02:15:29;;;;;;;6.00;3.47;;;;;;;14.85;95.91;96463.44;5057076;28;20203;-70
2022/08/24 02:17:56;;;;;;;4.70;3.45;;;;;;;14.80;95.86;96463.25;5056620;28;20730;-71
2022/08/24 02:20:23;;;;;;;5.40;3.80;;;;;;;14.74;97.33;96457.91;5056838;28;20715;-71
2022/08/24 02:22:51;;;;;;;4.05;3.20;;;;;;;14.80;97.62;96465.88;5055802;28;20785;-71
2022/08/24 02:25:17;;;;;;;4.90;3.90;;;;;;;14.80;96.77;96452.63;5056818;28;20201;-71
2022/08/24 02:27:44;;;;;;;7.13;3.50;;;;;;;14.64;96.30;96460.91;5057095;28;20200;-69
2022/08/24 02:30:11;;;;;;;6.45;3.65;;;;;;;14.73;96.06;96454.41;5056781;28;20208;-69
2022/08/24 02:32:39;;;;;;;7.28;4.15;;;;;;;14.70;97.21;96454.81;5056520;28;20711;-69
2022/08/24 02:35:07;;;;;;;5.45;3.80;;;;;;;14.76;97.15;96453.19;5056693;28;20215;-70
2022/08/24 02:37:34;;;;;;;6.28;4.07;;;;;;;14.72;96.95;96457.28;5056558;28;20204;-69
2022/08/24 02:40:00;;;;;;;6.45;3.53;;;;;;;14.63;97.23;96457.63;5056978;28;20201;-69
2022/08/24 02:42:28;;;;;;;5.63;4.10;;;;;;;14.74;98.49;96450.75;5056101;28;20219;-70
2022/08/24 02:44:55;;;;;;;5.47;4.00;;;;;;;14.67;99.05;96454.38;5053504;28;20204;-67
2022/08/24 02:47:21;;;;;;;5.90;4.40;;;;;;;14.73;100.00;96454.41;5056507;28;20320;-67
2022/08/24 02:49:49;;;;;;;10.00;4.75;;;;;;;14.55;100.00;96455.97;5056660;28;20212;-69
2022/08/24 02:52:15;;;;;;;6.47;4.78;;;;;;;14.39;100.00;96455.44;5056253;28;20239;-69
2022/08/24 02:54:42;;;;;;;6.85;4.78;;;;;;;14.37;100.00;96452.16;5055115;28;20200;-70
2022/08/24 02:57:08;;;;;;;8.50;5.00;;;;;;;14.51;100.00;96453.88;5056285;28;20213;-70
2022/08/24 02:59:35;;;;;;;9.13;5.05;;;;;;;14.52;100.00;96452.88;5056441;28;20215;-70
2022/08/24 03:02:01;;;;;;;7.38;4.78;;;;;;;14.47;100.00;96453.44;5056650;28;20197;-70
2022/08/24 03:04:28;;;;;;;7.57;4.68;;;;;;;14.54;99.24;96449.00;5055596;28;20313;-70
2022/08/24 03:06:56;;;;;;;8.25;5.25;;;;;;;14.63;100.00;96452.34;5057116;28;20201;-69
2022/08/24 03:09:22;;;;;;;11.63;5.68;;;;;;;14.61;100.00;96449.84;5055725;28;20204;-69
2022/08/24 03:11:48;;;;;;;7.97;4.93;;;;;;;14.62;100.00;96453.34;5055940;28;20204;-69
2022/08/24 03:14:16;;;;;;;6.15;4.43;;;;;;;14.39;100.00;96450.16;5055152;28;20221;-70
2022/08/24 03:16:42;;;;;;;8.15;5.28;;;;;;;14.26;100.00;96456.19;5056575;28;20303;-70
2022/08/24 03:19:09;;;;;;;6.18;4.32;;;;;;;14.27;100.00;96452.53;5055787;28;20204;-70
2022/08/24 03:21:35;;;;;;;9.45;5.13;;;;;;;14.28;100.00;96453.34;5056571;28;20212;-70
2022/08/24 03:24:04;;;;;;;8.10;5.10;;;;;;;14.51;100.00;96452.06;5058676;28;20239;-69
2022/08/24 03:26:30;;;;;;;7.97;5.18;;;;;;;14.44;100.00;96445.09;5059378;28;21101;-70
2022/08/24 03:28:56;;;;;;;8.10;4.70;;;;;;;14.48;99.65;96443.69;5059270;28;20677;-70
2022/08/24 03:31:23;;;;;;;8.95;4.85;;;;;;;14.33;99.65;96450.91;5059888;28;20201;-69
2022/08/24 03:33:51;;;;;;;8.10;4.82;;;;;;;14.47;99.04;96452.63;5059280;28;20231;-70
2022/08/24 03:36:17;;;;;;;8.45;4.57;;;;;;;14.43;98.98;96454.84;5059613;28;20284;-69
2022/08/24 03:38:44;;;;;;;8.00;4.45;;;;;;;14.23;100.00;96458.41;5060317;28;20205;-71
2022/08/24 03:41:11;;;;;;;6.78;4.47;;;;;;;14.24;100.00;96454.75;5059300;28;20681;-70
2022/08/24 03:43:48;;;;;;;8.57;4.78;;;;;;;14.22;100.00;96449.63;5058578;28;20980;-71
2022/08/24 03:46:17;;;;;;;5.45;4.43;;;;;;;14.30;100.00;96449.47;5059553;28;20333;-71
2022/08/24 03:48:44;;;;;;;6.55;4.60;;;;;;;14.30;100.00;96453.97;5059154;28;20759;-69
2022/08/24 03:51:12;;;;;;;9.07;4.90;;;;;;;14.39;100.00;96458.91;5059358;28;20333;-71
2022/08/24 03:53:39;;;;;;;6.72;4.07;;;;;;;14.32;98.67;96458.06;5058987;28;20316;-71
2022/08/24 03:56:06;;;;;;;5.15;4.05;;;;;;;14.05;98.05;96460.69;5059435;28;20680;-71
2022/08/24 03:58:35;;;;;;;6.00;4.22;;;;;;;14.16;98.85;96461.00;5059329;28;20196;-72
2022/08/24 04:01:01;;;;;;;9.93;5.28;;;;;;;14.08;99.69;96460.34;5059231;28;20201;-70
2022/08/24 04:03:28;;;;;;;7.20;4.45;;;;;;;14.07;100.00;96458.66;5058471;28;20224;-71
2022/08/24 04:05:54;;;;;;;6.38;4.28;;;;;;;13.96;100.00;96458.38;5058874;28;20711;-71
2022/08/24 04:08:21;;;;;;;11.55;4.85;;;;;;;13.93;100.00;96456.94;5058345;28;20204;-71
2022/08/24 04:10:48;;;;;;;7.55;5.00;;;;;;;13.98;100.00;96463.28;5059620;28;20200;-71
2022/08/24 04:13:16;;;;;;;7.80;5.05;;;;;;;13.94;100.00;96469.19;5058044;28;20226;-70
2022/08/24 04:15:43;;;;;;;9.15;4.78;;;;;;;13.96;100.00;96467.13;5058287;28;20885;-70
2022/08/24 04:18:10;;;;;;;8.02;4.30;;;;;;;13.80;99.90;96463.97;5059215;28;20234;-70
2022/08/24 04:20:38;;;;;;;8.30;4.32;;;;;;;13.97;99.96;96465.31;5058790;28;20231;-71
2022/08/24 04:23:06;;;;;;;10.73;4.32;;;;;;;13.81;100.00;96466.41;5057813;28;20699;-70
2022/08/24 04:25:39;;;;;;;8.82;4.75;;;;;;;13.73;100.00;96471.81;5058584;28;20743;-71
2022/08/24 04:28:05;;;;;;;6.43;4.60;;;;;;;13.87;100.00;96478.06;5058906;28;20559;-70
2022/08/24 04:30:32;;;;;;;6.45;4.32;;;;;;;13.76;100.00;96471.47;5058667;28;20287;-71
2022/08/24 04:33:00;;;;;;;6.93;4.28;;;;;;;13.79;100.00;96473.72;5058029;28;20312;-70
2022/08/24 04:35:26;;;;;;;6.53;4.63;;;;;;;13.76;100.00;96473.28;5057588;28;20207;-71
2022/08/24 04:37:52;;;;;;;8.38;4.90;;;;;;;13.79;100.00;96473.72;5058810;28;20208;-70
2022/08/24 04:40:19;;;;;;;8.55;4.85;;;;;;;13.75;100.00;96480.41;5058354;28;20196;-71
2022/08/24 04:42:46;;;;;;;11.27;4.75;;;;;;;13.79;100.00;96479.03;5057914;28;20327;-70
2022/08/24 04:45:12;;;;;;;7.43;4.88;;;;;;;13.78;100.00;96481.88;5058377;28;20224;-71
2022/08/24 04:47:38;;;;;;;10.77;5.47;;;;;;;13.82;100.00;96483.13;5058327;28;20204;-71
2022/08/24 04:50:08;;;;;;;6.70;4.78;;;;;;;13.79;99.49;96484.31;5058173;28;20200;-71
2022/08/24 04:52:35;;;;;;;5.72;4.07;;;;;;;13.80;99.64;96485.16;5057099;28;21142;-71
2022/08/24 04:55:02;;;;;;;7.07;4.45;;;;;;;13.92;99.28;96484.44;5058345;28;20201;-71
2022/08/24 04:57:28;;;;;;;5.80;3.92;;;;;;;13.87;99.10;96481.53;5057917;28;20921;-70
2022/08/24 04:59:56;;;;;;;4.97;3.95;;;;;;;13.96;99.02;96490.97;5057800;28;20212;-71
2022/08/24 05:02:23;;;;;;;21.85;3.90;;;;;;;14.01;98.24;96491.22;5057033;28;20231;-71
2022/08/24 05:04:49;;;;;;;4.53;3.75;;;;;;;13.89;100.00;96498.06;5057874;28;20230;-71
2022/08/24 05:07:18;;;;;;;5.10;4.10;;;;;;;14.11;100.00;96495.22;5057827;28;20201;-71
2022/08/24 05:10:29;;;;;;;4.88;3.80;;;;;;;14.04;100.00;96501.47;5057817;28;20209;-71
2022/08/24 05:12:56;;;;;;;4.25;3.83;;;;;;;14.24;100.00;96505.09;5053366;28;20220;-71
2022/08/24 05:15:22;;;;;;;6.45;4.45;;;;;;;14.25;100.00;96509.41;5057482;28;20196;-71
2022/08/24 05:17:49;;;;;;;8.38;5.05;;;;;;;14.33;100.00;96506.59;5058063;28;20209;-71
2022/08/24 05:20:16;;;;;;;5.97;4.80;;;;;;;14.42;100.00;96500.13;5057654;28;20204;-71
2022/08/24 05:22:43;;;;;;;6.45;4.85;;;;;;;14.49;100.00;96508.97;5057077;28;20224;-70
2022/08/24 05:25:10;;;;;;;8.05;5.28;;;;;;;14.50;100.00;96513.22;5057408;28;20235;-71
2022/08/24 05:27:36;;;;;;;7.18;5.05;;;;;;;14.65;100.00;96501.53;5057355;28;20278;-70
2022/08/24 05:30:04;;;;;;;5.85;4.68;;;;;;;14.79;100.00;96501.38;5057133;28;20694;-71
2022/08/24 05:32:30;;;;;;;8.05;5.38;;;;;;;14.82;100.00;96503.63;5056777;28;20216;-71
2022/08/24 05:34:59;;;;;;;7.50;5.80;;;;;;;14.91;100.00;96496.34;5057378;28;20200;-71
2022/08/24 05:37:26;;;;;;;9.00;5.97;;;;;;;15.02;100.00;96501.91;5056737;28;20200;-71
2022/08/24 05:39:54;;;;;;;8.88;6.10;;;;;;;15.18;100.00;96508.72;5057338;28;20215;-71
2022/08/24 05:42:20;;;;;;;9.23;6.03;;;;;;;15.19;100.00;96505.84;5056303;28;20216;-71
2022/08/24 05:44:47;;;;;;;9.25;6.22;;;;;;;15.29;100.00;96507.16;5057452;28;20239;-71
2022/08/24 05:47:13;;;;;;;11.55;7.20;;;;;;;15.40;100.00;96506.56;5057130;28;20208;-72
2022/08/24 05:49:40;;;;;;;11.20;7.07;;;;;;;15.51;100.00;96513.13;5057068;28;20296;-71
2022/08/24 05:52:07;;;;;;;9.63;7.22;;;;;;;15.63;100.00;96511.53;5056676;28;20251;-71
2022/08/24 05:54:34;;;;;;;10.57;7.40;;;;;;;15.75;100.00;96509.94;5056943;28;20287;-69
2022/08/24 05:57:03;;;;;;;13.40;7.70;;;;;;;15.93;100.00;96517.09;5056686;28;20242;-69
2022/08/24 05:59:30;;;;;;;15.98;7.35;;;;;;;15.99;100.00;96512.81;5056800;28;20200;-70
2022/08/24 06:01:57;;;;;;;15.27;7.88;;;;;;;16.08;100.00;96515.06;5057092;28;21140;-69
2022/08/24 06:04:23;;;;;;;11.68;7.50;;;;;;;16.28;100.00;96510.59;5056412;28;20235;-69
2022/08/24 06:06:51;;;;;;;11.77;7.28;;;;;;;16.33;100.00;96521.47;5057079;28;20204;-68
2022/08/24 06:09:17;;;;;;;11.55;7.40;;;;;;;16.43;100.00;96513.84;5056387;28;20204;-70
2022/08/24 06:11:45;;;;;;;13.98;7.55;;;;;;;16.57;100.00;96508.34;5057257;28;20200;-69
2022/08/24 06:14:15;;;;;;;13.95;8.15;;;;;;;16.72;100.00;96510.75;5056517;28;20236;-69
2022/08/24 06:16:44;;;;;;;12.57;8.40;;;;;;;16.65;100.00;96515.28;5056864;28;20204;-69
2022/08/24 06:19:14;;;;;;;13.30;8.50;;;;;;;16.65;100.00;96520.59;5056559;28;20655;-69
2022/08/24 06:21:41;;;;;;;14.82;8.40;;;;;;;16.68;100.00;96509.53;5056613;28;20675;-70
2022/08/24 06:24:08;;;;;;;12.90;7.97;;;;;;;16.73;100.00;96515.88;5056094;28;20243;-69
2022/08/24 06:29:22;;;;;;;12.18;7.97;;;;;;;16.96;100.00;96510.09;5056787;28;20942;-69
2022/08/24 06:31:48;;;;;;;12.82;7.80;;;;;;;16.98;100.00;96516.00;5056771;28;20211;-69
2022/08/24 06:34:18;;;;;;;15.23;8.15;;;;;;;17.18;100.00;96518.41;5055673;28;20227;-69
2022/08/24 06:36:44;;;;;;;13.23;7.78;;;;;;;17.08;100.00;96515.38;5056929;28;20200;-69
2022/08/24 06:39:11;;;;;;;13.60;8.65;;;;;;;17.23;100.00;96515.94;5056693;28;20212;-69
2022/08/24 06:41:39;;;;;;;12.88;7.75;;;;;;;17.26;100.00;96520.03;5056669;28;20731;-69
2022/08/24 06:44:07;;;;;;;13.82;8.13;;;;;;;17.41;100.00;96520.59;5055503;28;20232;-69
2022/08/24 06:46:36;;;;;;;14.05;8.32;;;;;;;17.49;100.00;96531.81;5056435;28;20200;-70
2022/08/24 06:49:02;;;;;;;15.40;8.38;;;;;;;17.33;100.00;96537.63;5056477;28;20311;-69
2022/08/24 06:51:30;;;;;;;17.60;8.95;;;;;;;17.66;100.00;96532.97;5056637;28;20196;-68
2022/08/24 06:53:57;;;;;;;14.48;8.80;;;;;;;17.69;100.00;96537.84;5053484;28;20598;-68
2022/08/24 06:56:23;;;;;;;16.33;8.77;;;;;;;17.62;98.66;96538.94;5055076;28;20214;-68
2022/08/24 06:58:50;;;;;;;15.10;9.10;;;;;;;17.83;98.33;96544.75;5058019;28;20215;-68
2022/08/24 07:01:19;;;;;;;16.05;8.18;;;;;;;17.92;97.20;96538.13;5058867;28;20200;-68
2022/08/24 07:03:47;;;;;;;13.50;8.88;;;;;;;17.80;97.58;96540.66;5059004;28;20452;-68
2022/08/24 07:06:14;;;;;;;14.43;8.57;;;;;;;18.07;100.00;96534.13;5059946;28;21090;-67
2022/08/24 07:08:41;;;;;;;17.60;9.50;;;;;;;18.02;98.63;96549.16;5060512;28;20205;-68
2022/08/24 07:11:08;;;;;;;16.27;8.35;;;;;;;18.22;98.77;96541.88;5060097;28;20295;-69
2022/08/24 07:13:35;;;;;;;13.40;8.63;;;;;;;18.40;98.98;96545.41;5059012;28;20719;-68
2022/08/24 07:16:02;;;;;;;15.02;9.52;;;;;;;18.39;96.67;96549.94;5059534;28;20209;-67
2022/08/24 07:18:29;;;;;;;14.55;8.93;;;;;;;18.39;93.15;96555.28;5059983;28;20308;-67
2022/08/24 07:20:59;;;;;;;12.70;8.23;;;;;;;18.58;96.15;96551.66;5060420;28;20227;-68
2022/08/24 07:23:26;;;;;;;11.80;8.52;;;;;;;18.53;94.18;96543.47;5059286;28;20644;-68
2022/08/24 07:25:52;;;;;;;16.65;8.52;;;;;;;18.73;94.66;96549.44;5059523;28;20734;-67
2022/08/24 07:28:19;;;;;;;13.35;8.30;;;;;;;18.90;93.81;96552.34;5059829;28;20274;-67
2022/08/24 07:30:45;;;;;;;13.65;9.07;;;;;;;18.93;91.00;96556.22;5059790;28;20247;-69
2022/08/24 07:33:12;;;;;;;12.88;8.43;;;;;;;19.05;93.03;96553.63;5058778;28;20232;-69
2022/08/24 07:35:39;;;;;;;13.40;8.68;;;;;;;19.16;93.65;96560.97;5059579;28;20323;-69
2022/08/24 07:38:08;;;;;;;17.33;8.30;;;;;;;19.38;92.01;96556.81;5059865;28;20236;-68
2022/08/24 07:40:35;;;;;;;13.02;8.25;;;;;;;19.47;89.84;96555.47;5059979;28;20212;-69
2022/08/24 07:43:02;;;;;;;15.15;8.20;;;;;;;19.40;89.95;96557.38;5058415;28;20278;-69
2022/08/24 07:45:29;;;;;;;12.48;8.40;;;;;;;19.57;89.13;96560.03;5059614;28;20220;-69
2022/08/24 07:47:56;;;;;;;10.63;7.55;;;;;;;19.84;89.42;96549.81;5059563;28;20207;-69
2022/08/24 07:50:23;;;;;;;16.95;9.50;;;;;;;19.77;88.38;96549.13;5059784;28;20338;-69
2022/08/24 07:52:49;;;;;;;12.10;8.57;;;;;;;20.02;88.19;96553.31;5058705;28;20247;-69
2022/08/24 07:55:17;;;;;;;12.57;8.23;;;;;;;20.25;88.49;96553.38;5059499;28;20196;-69
2022/08/24 07:57:45;;;;;;;10.02;5.85;;;;;;;20.47;82.53;96552.63;5059210;28;20262;-71
2022/08/24 08:00:14;;;;;;;10.70;7.25;;;;;;;20.88;83.16;96560.59;5059296;28;21201;-70
2022/08/24 08:02:41;;;;;;;11.40;7.38;;;;;;;20.93;81.94;96548.13;5058536;28;20573;-70
2022/08/24 08:05:08;;;;;;;10.77;7.28;;;;;;;21.06;79.09;96553.25;5058848;28;20228;-70
2022/08/24 08:07:35;;;;;;;12.70;6.72;;;;;;;21.09;79.95;96552.81;5059151;28;20208;-70
2022/08/24 08:10:02;;;;;;;15.80;6.80;;;;;;;21.25;78.27;96552.06;5057971;28;20270;-70
2022/08/24 08:12:29;;;;;;;10.18;6.60;;;;;;;21.55;78.08;96555.44;5054961;28;20235;-71
2022/08/24 08:14:57;;;;;;;10.30;6.78;;;;;;;21.47;76.20;96550.41;5058785;28;20204;-71
2022/08/24 08:17:24;;;;;;;12.40;5.90;;;;;;;21.70;76.18;96545.84;5058772;28;20256;-70
2022/08/24 08:19:50;;;;;;;10.18;6.13;;;;;;;21.74;75.70;96551.53;5058448;28;20307;-72
2022/08/24 08:25:01;;;;;;;7.95;5.22;;;;;;;22.09;74.75;96553.84;5058251;28;20267;-70
2022/08/24 08:27:29;;;;;;;10.45;6.72;;;;;;;22.05;73.49;96546.53;5058589;28;20236;-71
2022/08/24 08:29:56;;;;;;;13.25;5.82;;;;;;;22.18;74.91;96540.84;5058249;28;20215;-72
2022/08/24 08:32:22;;;;;;;8.30;5.93;;;;;;;22.20;73.31;96550.28;5057785;28;20260;-71
2022/08/24 08:34:49;;;;;;;10.23;4.85;;;;;;;22.32;72.10;96551.06;5057833;28;20291;-70
2022/08/24 08:37:15;;;;;;;10.98;4.47;;;;;;;22.60;70.24;96559.06;5057996;28;20224;-71
2022/08/24 08:39:43;;;;;;;6.57;4.85;;;;;;;22.77;71.43;96563.41;5058083;28;21114;-70
2022/08/24 08:42:39;;;;;;;6.75;5.05;;;;;;;23.07;68.92;96555.84;5058085;28;20762;-70
2022/08/24 08:45:26;;;;;;;7.65;5.05;;;;;;;22.77;70.32;96551.81;5056890;28;20305;-70
2022/08/24 08:48:26;;;;;;;10.52;6.50;;;;;;;22.94;70.92;96561.53;5057097;28;20204;-70
2022/08/24 08:51:23;;;;;;;7.60;4.60;;;;;;;22.99;70.04;96553.56;5057845;28;20205;-69
2022/08/24 08:54:14;;;;;;;7.53;5.00;;;;;;;23.43;68.65;96550.72;5056196;28;20251;-70
2022/08/24 08:56:53;;;;;;;8.57;4.30;;;;;;;23.29;68.52;96547.81;5057742;28;20204;-71
2022/08/24 08:59:37;;;;;;;6.65;5.07;;;;;;;23.53;67.33;96544.66;5057831;28;20694;-70
2022/08/24 09:02:20;;;;;;;6.22;4.28;;;;;;;23.35;67.54;96556.50;5057728;28;20223;-70
2022/08/24 09:05:15;;;;;;;7.22;3.97;;;;;;;23.64;67.16;96549.91;5058109;28;20599;-70
2022/08/24 09:07:51;;;;;;;6.53;4.15;;;;;;;23.40;67.82;96551.19;5057756;28;20201;-70
2022/08/24 09:10:33;;;;;;;5.32;3.60;;;;;;;23.59;68.99;96552.53;5057887;28;20212;-70
2022/08/24 09:13:15;;;;;;;6.47;3.88;;;;;;;23.51;67.27;96544.91;5057473;28;20231;-70
2022/08/24 09:15:59;;;;;;;7.80;3.65;;;;;;;23.70;69.76;96543.56;5058480;28;20200;-68
2022/08/24 09:18:40;;;;;;;6.35;3.92;;;;;;;23.77;68.93;96546.06;5057114;28;20683;-67
2022/08/24 09:21:24;;;;;;;6.40;4.15;;;;;;;23.99;70.11;96536.88;5057817;28;20203;-69
2022/08/24 09:24:03;;;;;;;7.55;3.75;;;;;;;24.11;69.20;96538.38;5057049;28;20232;-69
2022/08/24 09:26:32;;;;;;;7.78;4.28;;;;;;;24.17;67.31;96542.75;5056829;28;20223;-69
2022/08/24 09:29:09;;;;;;;5.22;3.97;;;;;;;24.30;68.93;96541.50;5056652;28;20303;-68
2022/08/24 09:31:50;;;;;;;6.95;4.28;;;;;;;24.55;68.32;96533.72;5057043;28;20979;-68
2022/08/24 09:34:27;;;;;;;7.20;3.90;;;;;;;24.37;68.00;96539.44;5055898;28;20678;-69
2022/08/24 09:37:02;;;;;;;5.85;4.45;;;;;;;24.53;66.51;96531.28;5056744;28;20207;-69
2022/08/24 09:39:44;;;;;;;6.10;4.10;;;;;;;24.33;67.99;96530.25;5056548;28;20200;-69
2022/08/24 09:42:45;;;;;;;6.15;4.05;;;;;;;24.65;67.84;96530.03;5056639;28;20208;-69
2022/08/24 09:45:43;;;;;;;6.95;4.15;;;;;;;24.52;67.79;96528.84;5056341;28;20585;-69
2022/08/24 09:48:45;;;;;;;4.68;3.45;;;;;;;24.89;71.14;96525.09;5056116;28;20232;-69
2022/08/24 09:51:41;;;;;;;9.45;4.28;;;;;;;24.87;65.95;96524.53;5052847;28;20206;-69
2022/08/24 09:54:46;;;;;;;5.70;3.90;;;;;;;24.76;68.51;96520.97;5055372;28;20324;-68
2022/08/24 09:57:40;;;;;;;5.40;3.22;;;;;;;24.77;69.41;96527.16;5034297;28;20205;-68
2022/08/24 10:00:14;;;;;;;5.63;4.32;;;;;;;24.61;66.36;96528.09;5057158;28;20204;-69
2022/08/24 10:02:56;;;;;;;6.95;4.43;;;;;;;24.77;67.14;96524.44;5056505;28;20220;-68
2022/08/24 10:05:30;;;;;;;7.40;3.72;;;;;;;24.98;68.64;96529.75;5056613;28;20699;-69
2022/08/24 10:08:08;;;;;;;7.95;4.18;;;;;;;25.24;67.12;96520.75;5056337;28;20290;-69
2022/08/24 10:10:47;;;;;;;5.25;3.95;;;;;;;25.37;64.53;96515.72;5057244;28;20204;-70
2022/08/24 10:13:24;;;;;;;6.97;3.80;;;;;;;25.46;66.60;96518.75;5056383;28;20231;-70
2022/08/24 10:16:08;;;;;;;5.72;3.75;;;;;;;25.65;66.42;96518.03;5056929;28;20192;-69
2022/08/24 10:18:46;;;;;;;6.22;3.50;;;;;;;25.33;65.77;96506.53;5056748;28;20212;-69
2022/08/24 10:21:24;;;;;;;4.28;3.00;;;;;;;25.28;62.66;96506.50;5056684;28;20219;-70
2022/08/24 10:24:06;;;;;;;4.00;3.03;;;;;;;25.52;66.05;96505.00;5056271;28;20223;-69
2022/08/24 10:26:45;;;;;;;6.03;3.30;;;;;;;25.53;66.99;96503.13;5056216;28;20224;-70
2022/08/24 10:29:27;;;;;;;3.90;2.80;;;;;;;25.26;63.77;96505.13;5056666;28;20204;-70
2022/08/24 10:32:11;;;;;;;3.90;2.72;;;;;;;25.44;61.04;96502.78;5056454;28;20215;-70
2022/08/24 10:34:54;;;;;;;4.63;2.53;;;;;;;25.49;61.23;96493.94;5060528;28;20672;-69
2022/08/24 10:37:38;;;;;;;4.97;2.60;;;;;;;25.50;62.82;96498.25;5060824;28;20211;-71
2022/08/24 10:40:30;;;;;;;5.53;3.15;;;;;;;25.58;63.13;96497.75;5060555;28;20211;-71
2022/08/24 10:43:36;;;;;;;5.15;3.45;;;;;;;25.72;61.95;96498.91;5060257;28;20238;-70
2022/08/24 10:46:39;;;;;;;4.15;2.90;;;;;;;26.11;63.27;96490.91;5060260;28;20227;-70
2022/08/24 10:49:34;;;;;;;6.55;2.92;;;;;;;26.46;58.81;96496.38;5060852;28;20211;-70
2022/08/24 10:52:25;;;;;;;10.45;3.00;;;;;;;26.22;58.83;96495.28;5059697;28;20208;-70
2022/08/24 10:54:52;;;;;;;4.15;2.78;;;;;;;25.95;61.38;96497.38;5060585;28;20224;-71
2022/08/24 10:57:28;;;;;;;4.00;2.67;;;;;;;25.76;59.83;96498.09;5060683;28;20200;-70
2022/08/24 11:00:00;;;;;;;6.13;2.80;;;;;;;26.08;59.92;96487.94;5060477;28;20254;-70
2022/08/24 11:02:33;;;;;;;4.20;3.03;;;;;;;26.29;62.31;96501.22;5059479;28;20255;-70
2022/08/24 11:05:04;;;;;;;3.95;2.58;;;;;;;26.38;60.37;96502.34;5060283;28;20285;-70
2022/08/24 11:07:32;;;;;;;5.30;3.45;;;;;;;26.11;59.01;96506.31;5060011;28;20208;-70
2022/08/24 11:10:01;;;;;;;4.35;2.58;;;;;;;26.17;60.91;96497.13;5060148;28;20209;-69
2022/08/24 11:12:31;;;;;;;4.82;3.00;;;;;;;26.17;60.47;96491.72;5059071;28;20331;-70
2022/08/24 11:15:01;;;;;;;4.38;3.05;;;;;;;26.04;59.21;96498.47;5060020;28;20200;-70
2022/08/24 11:17:33;;;;;;;3.28;2.58;;;;;;;26.09;58.76;96498.47;5059667;28;20284;-70
2022/08/24 11:20:00;;;;;;;4.13;2.70;;;;;;;26.20;63.77;96491.22;5059725;28;20201;-70
2022/08/24 11:22:39;;;;;;;5.85;2.65;;;;;;;26.21;58.92;96498.22;5059387;28;20216;-70
2022/08/24 11:25:13;;;;;;;3.63;2.70;;;;;;;26.68;61.56;96486.13;5059774;28;20204;-70
2022/08/24 11:27:44;;;;;;;6.78;2.90;;;;;;;26.67;60.60;96489.94;5059734;28;20212;-70
2022/08/24 11:30:23;;;;;;;4.85;3.03;;;;;;;26.78;57.06;96489.66;5059891;28;20807;-70
2022/08/24 11:32:55;;;;;;;5.47;2.72;;;;;;;26.77;58.71;96492.59;5059303;28;20228;-70
2022/08/24 11:35:24;;;;;;;3.58;2.90;;;;;;;26.93;60.19;96491.53;5059198;28;20633;-70
2022/08/24 11:37:53;;;;;;;5.35;2.72;;;;;;;26.61;59.85;96489.09;5059791;28;20204;-70
2022/08/24 11:40:26;;;;;;;5.45;3.00;;;;;;;26.78;64.69;96480.72;5059760;28;20204;-70
2022/08/24 11:43:21;;;;;;;3.92;3.13;;;;;;;26.65;59.81;96476.66;5059076;28;20225;-70
2022/08/24 11:46:02;;;;;;;3.38;2.80;;;;;;;26.99;59.88;96479.66;5052331;28;20228;-71
2022/08/24 11:48:40;;;;;;;6.20;2.70;;;;;;;26.81;58.99;96480.19;5059155;28;20200;-71
2022/08/24 11:51:15;;;;;;;4.97;3.10;;;;;;;27.08;59.21;96478.81;5059043;28;20323;-71
2022/08/24 11:53:56;;;;;;;5.35;2.70;;;;;;;26.66;57.53;96482.88;5058611;28;20766;-70
2022/08/24 11:56:27;;;;;;;3.92;2.70;;;;;;;26.96;60.03;96482.88;5057733;28;20196;-70